sensor_id;sensor_type;location;lat;lon;timestamp;pressure;altitude;pressure_sealevel;temperature;humidity
69316;BME280;56445;43.552;5.034;2022-10-16T15:48:45;101978.34;;;40.19;22.29
69316;BME280;56445;43.552;5.034;2022-10-16T15:51:13;101988.53;;;40.27;22.38
69316;BME280;56445;43.552;5.034;2022-10-16T15:53:41;101968.13;;;40.11;22.33
69316;BME280;56445;43.552;5.034;2022-10-16T15:56:10;101961.13;;;39.97;22.05
69316;BME280;56445;43.552;5.034;2022-10-16T15:58:39;101982.94;;;40.00;22.27
69316;BME280;56445;43.552;5.034;2022-10-16T16:01:07;101966.59;;;39.86;22.19
69316;BME280;56445;43.552;5.034;2022-10-16T16:03:41;101961.50;;;39.69;22.24
69316;BME280;56445;43.552;5.034;2022-10-16T16:06:11;101984.16;;;39.73;22.43
69316;BME280;56445;43.552;5.034;2022-10-16T16:08:40;101991.41;;;39.70;22.35
69316;BME280;56445;43.552;5.034;2022-10-16T16:11:11;102000.19;;;39.65;22.34
69316;BME280;56445;43.552;5.034;2022-10-16T16:13:39;101961.53;;;39.42;22.47
69316;BME280;56445;43.552;5.034;2022-10-16T16:16:14;101983.78;;;39.47;22.21
69316;BME280;56445;43.552;5.034;2022-10-16T16:18:45;101985.22;;;39.38;22.33
69316;BME280;56445;43.552;5.034;2022-10-16T16:21:14;101982.72;;;39.33;22.31
69316;BME280;56445;43.552;5.034;2022-10-16T16:23:44;102024.59;;;39.50;22.26
69316;BME280;56445;43.552;5.034;2022-10-16T16:26:29;102024.91;;;39.45;22.34
69316;BME280;56445;43.552;5.034;2022-10-16T16:29:03;102022.81;;;39.42;22.52
69316;BME280;56445;43.552;5.034;2022-10-16T16:31:31;102034.56;;;39.44;22.43
69316;BME280;56445;43.552;5.034;2022-10-16T16:34:03;102030.44;;;39.41;22.68
69316;BME280;56445;43.552;5.034;2022-10-16T16:36:30;102018.56;;;39.29;22.49
69316;BME280;56445;43.552;5.034;2022-10-16T16:38:59;102018.13;;;39.26;22.43
69316;BME280;56445;43.552;5.034;2022-10-16T16:41:28;102029.22;;;39.16;22.46
69316;BME280;56445;43.552;5.034;2022-10-16T16:44:08;102011.50;;;38.96;22.52
69316;BME280;56445;43.552;5.034;2022-10-16T16:46:37;102036.69;;;39.04;22.74
69316;BME280;56445;43.552;5.034;2022-10-16T16:49:06;102030.53;;;38.99;22.71
69316;BME280;56445;43.552;5.034;2022-10-16T16:51:34;102020.72;;;38.93;22.85
69316;BME280;56445;43.552;5.034;2022-10-16T16:54:06;102043.00;;;38.98;22.85
69316;BME280;56445;43.552;5.034;2022-10-16T16:56:35;102046.06;;;38.89;22.48
69316;BME280;56445;43.552;5.034;2022-10-16T16:59:02;102041.47;;;38.81;22.48
69316;BME280;56445;43.552;5.034;2022-10-16T17:01:32;102050.81;;;38.85;22.53
69316;BME280;56445;43.552;5.034;2022-10-16T17:04:00;102039.63;;;38.69;22.75
69316;BME280;56445;43.552;5.034;2022-10-16T17:06:29;102053.28;;;38.67;22.39
69316;BME280;56445;43.552;5.034;2022-10-16T17:08:58;102069.31;;;38.63;22.66
69316;BME280;56445;43.552;5.034;2022-10-16T17:11:28;102064.53;;;38.47;22.87
69316;BME280;56445;43.552;5.034;2022-10-16T17:13:57;102054.94;;;38.33;23.08
69316;BME280;56445;43.552;5.034;2022-10-16T17:16:28;102044.34;;;38.26;23.01
69316;BME280;56445;43.552;5.034;2022-10-16T17:19:07;102081.28;;;38.40;22.69
69316;BME280;56445;43.552;5.034;2022-10-16T17:21:35;102064.53;;;38.28;22.57
69316;BME280;56445;43.552;5.034;2022-10-16T17:24:04;102074.25;;;38.31;22.57
69316;BME280;56445;43.552;5.034;2022-10-16T17:26:32;102085.44;;;38.27;22.49
69316;BME280;56445;43.552;5.034;2022-10-16T17:29:01;102081.41;;;38.08;22.87
69316;BME280;56445;43.552;5.034;2022-10-16T17:31:35;102094.91;;;38.03;23.00
69316;BME280;56445;43.552;5.034;2022-10-16T17:34:05;102096.97;;;37.86;22.69
69316;BME280;56445;43.552;5.034;2022-10-16T17:36:37;102115.56;;;37.91;22.88
69316;BME280;56445;43.552;5.034;2022-10-16T17:39:11;102088.97;;;37.73;23.22
69316;BME280;56445;43.552;5.034;2022-10-16T17:41:40;102114.13;;;37.81;22.81
69316;BME280;56445;43.552;5.034;2022-10-16T17:44:07;102101.16;;;37.77;22.88
69316;BME280;56445;43.552;5.034;2022-10-16T17:46:36;102099.69;;;37.83;23.09
69316;BME280;56445;43.552;5.034;2022-10-16T17:49:08;102097.31;;;37.85;22.98
69316;BME280;56445;43.552;5.034;2022-10-16T17:51:35;102087.25;;;37.84;23.24
69316;BME280;56445;43.552;5.034;2022-10-16T17:54:03;102093.03;;;37.91;22.77
69316;BME280;56445;43.552;5.034;2022-10-16T17:56:47;102105.66;;;37.97;22.90
69316;BME280;56445;43.552;5.034;2022-10-16T17:59:17;102111.38;;;38.01;22.98
69316;BME280;56445;43.552;5.034;2022-10-16T18:01:51;102122.56;;;37.97;23.29
69316;BME280;56445;43.552;5.034;2022-10-16T18:04:18;102103.75;;;37.85;23.09
69316;BME280;56445;43.552;5.034;2022-10-16T18:06:46;102104.50;;;37.82;23.34
69316;BME280;56445;43.552;5.034;2022-10-16T18:09:17;102095.41;;;37.73;23.26
69316;BME280;56445;43.552;5.034;2022-10-16T18:11:50;102121.50;;;37.86;23.36
69316;BME280;56445;43.552;5.034;2022-10-16T18:14:30;102118.94;;;37.81;23.04
69316;BME280;56445;43.552;5.034;2022-10-16T18:16:58;102120.22;;;37.83;23.34
69316;BME280;56445;43.552;5.034;2022-10-16T18:19:28;102115.50;;;37.72;23.14
69316;BME280;56445;43.552;5.034;2022-10-16T18:25:02;102107.75;;;37.37;23.65
69316;BME280;56445;43.552;5.034;2022-10-16T18:27:36;102149.72;;;37.58;23.51
69316;BME280;56445;43.552;5.034;2022-10-16T18:30:10;102140.00;;;37.55;23.54
69316;BME280;56445;43.552;5.034;2022-10-16T18:32:41;102118.47;;;37.31;23.09
69316;BME280;56445;43.552;5.034;2022-10-16T18:35:35;102116.44;;;37.31;23.51
69316;BME280;56445;43.552;5.034;2022-10-16T18:38:09;102153.63;;;37.53;23.38
69316;BME280;56445;43.552;5.034;2022-10-16T18:54:11;102152.97;;;37.44;23.47
69316;BME280;56445;43.552;5.034;2022-10-16T20:40:15;102211.22;;;36.87;23.66
69316;BME280;56445;43.552;5.034;2022-10-16T20:43:19;102228.53;;;37.01;23.33
69316;BME280;56445;43.552;5.034;2022-10-16T20:48:41;102178.66;;;36.61;23.50
69316;BME280;56445;43.552;5.034;2022-10-16T20:51:39;102227.28;;;36.86;23.45
69316;BME280;56445;43.552;5.034;2022-10-16T20:54:29;102235.25;;;36.84;23.44
69316;BME280;56445;43.552;5.034;2022-10-16T20:57:03;102213.03;;;36.67;23.67
69316;BME280;56445;43.552;5.034;2022-10-16T20:59:57;102232.59;;;36.76;23.73
69316;BME280;56445;43.552;5.034;2022-10-16T21:02:52;102210.44;;;36.62;23.43
69316;BME280;56445;43.552;5.034;2022-10-16T21:09:13;102226.84;;;36.60;24.09
69316;BME280;56445;43.552;5.034;2022-10-16T21:11:57;102243.97;;;36.79;23.75
69316;BME280;56445;43.552;5.034;2022-10-16T21:17:13;102223.81;;;36.77;23.90
